sensor_id;sensor_type;location;lat;lon;timestamp;pressure;altitude;pressure_sealevel;temperature;humidity
66524;BME280;53350;52.210;5.160;2023-04-08T00:01:30;102348.53;;;11.17;78.21
66524;BME280;53350;52.210;5.160;2023-04-08T00:03:57;102348.53;;;11.20;78.37
66524;BME280;53350;52.210;5.160;2023-04-08T00:06:24;102345.97;;;11.21;78.13
66524;BME280;53350;52.210;5.160;2023-04-08T00:08:51;102347.69;;;11.22;78.04
66524;BME280;53350;52.210;5.160;2023-04-08T00:11:17;102353.75;;;11.26;78.02
66524;BME280;53350;52.210;5.160;2023-04-08T00:13:44;102352.91;;;11.27;78.01
66524;BME280;53350;52.210;5.160;2023-04-08T00:16:10;102356.34;;;11.27;77.73
66524;BME280;53350;52.210;5.160;2023-04-08T00:18:37;102351.19;;;11.26;78.02
66524;BME280;53350;52.210;5.160;2023-04-08T00:21:05;102353.72;;;11.21;77.78
66524;BME280;53350;52.210;5.160;2023-04-08T00:23:31;102351.13;;;11.20;77.73
66524;BME280;53350;52.210;5.160;2023-04-08T00:25:58;102354.56;;;11.20;78.13
66524;BME280;53350;52.210;5.160;2023-04-08T00:28:24;102351.13;;;11.21;77.92
66524;BME280;53350;52.210;5.160;2023-04-08T00:30:51;102351.16;;;11.24;77.69
66524;BME280;53350;52.210;5.160;2023-04-08T00:33:18;102351.16;;;11.24;77.56
66524;BME280;53350;52.210;5.160;2023-04-08T00:35:45;102356.31;;;11.24;77.69
66524;BME280;53350;52.210;5.160;2023-04-08T00:38:12;102356.34;;;11.26;77.47
66524;BME280;53350;52.210;5.160;2023-04-08T00:40:39;102352.03;;;11.26;77.41
66524;BME280;53350;52.210;5.160;2023-04-08T00:43:05;102352.03;;;11.28;77.49
66524;BME280;53350;52.210;5.160;2023-04-08T00:45:32;102360.66;;;11.28;77.30
66524;BME280;53350;52.210;5.160;2023-04-08T00:47:59;102357.19;;;11.25;77.14
66524;BME280;53350;52.210;5.160;2023-04-08T00:50:26;102364.03;;;11.23;77.18
66524;BME280;53350;52.210;5.160;2023-04-08T00:52:52;102364.00;;;11.17;76.94
66524;BME280;53350;52.210;5.160;2023-04-08T00:55:20;102362.16;;;11.08;77.17
66524;BME280;53350;52.210;5.160;2023-04-08T00:57:47;102362.94;;;10.99;77.30
66524;BME280;53350;52.210;5.160;2023-04-08T01:00:14;102365.47;;;10.94;77.39
66524;BME280;53350;52.210;5.160;2023-04-08T01:02:44;102365.41;;;10.90;77.53
66524;BME280;53350;52.210;5.160;2023-04-08T01:05:14;102363.69;;;10.89;77.62
66524;BME280;53350;52.210;5.160;2023-04-08T01:07:46;102367.13;;;10.86;77.80
66524;BME280;53350;52.210;5.160;2023-04-08T01:10:16;102366.19;;;10.81;77.66
66524;BME280;53350;52.210;5.160;2023-04-08T01:12:48;102370.34;;;10.70;77.75
66524;BME280;53350;52.210;5.160;2023-04-08T01:15:16;102368.50;;;10.59;78.06
66524;BME280;53350;52.210;5.160;2023-04-08T01:17:43;102371.88;;;10.54;78.45
66524;BME280;53350;52.210;5.160;2023-04-08T01:20:12;102366.66;;;10.48;78.56
66524;BME280;53350;52.210;5.160;2023-04-08T01:22:45;102368.31;;;10.46;79.00
66524;BME280;53350;52.210;5.160;2023-04-08T01:25:20;102366.50;;;10.38;79.41
66524;BME280;53350;52.210;5.160;2023-04-08T01:27:51;102372.53;;;10.37;79.07
66524;BME280;53350;52.210;5.160;2023-04-08T01:30:22;102375.81;;;10.29;79.46
66524;BME280;53350;52.210;5.160;2023-04-08T01:32:51;102364.50;;;10.19;80.04
66524;BME280;53350;52.210;5.160;2023-04-08T01:35:18;102377.38;;;10.19;80.17
66524;BME280;53350;52.210;5.160;2023-04-08T01:37:46;102374.88;;;10.23;79.90
66524;BME280;53350;52.210;5.160;2023-04-08T01:40:14;102376.63;;;10.24;79.94
66524;BME280;53350;52.210;5.160;2023-04-08T01:42:43;102380.03;;;10.23;80.09
66524;BME280;53350;52.210;5.160;2023-04-08T01:45:11;102383.47;;;10.24;80.30
66524;BME280;53350;52.210;5.160;2023-04-08T01:47:39;102383.47;;;10.24;79.98
66524;BME280;53350;52.210;5.160;2023-04-08T01:50:08;102373.03;;;10.15;80.08
66524;BME280;53350;52.210;5.160;2023-04-08T01:52:36;102379.97;;;10.20;80.21
66524;BME280;53350;52.210;5.160;2023-04-08T01:55:04;102383.38;;;10.18;80.11
66524;BME280;53350;52.210;5.160;2023-04-08T01:57:34;102387.66;;;10.16;80.20
66524;BME280;53350;52.210;5.160;2023-04-08T02:00:05;102389.34;;;10.15;80.46
66524;BME280;53350;52.210;5.160;2023-04-08T02:02:35;102381.56;;;10.12;80.52
66524;BME280;53350;52.210;5.160;2023-04-08T02:05:02;102392.75;;;10.13;80.62
66524;BME280;53350;52.210;5.160;2023-04-08T02:07:29;102389.31;;;10.14;80.86
66524;BME280;53350;52.210;5.160;2023-04-08T02:09:55;102391.09;;;10.18;80.88
66524;BME280;53350;52.210;5.160;2023-04-08T02:12:23;102383.44;;;10.22;80.84
66524;BME280;53350;52.210;5.160;2023-04-08T02:14:50;102381.81;;;10.27;80.97
66524;BME280;53350;52.210;5.160;2023-04-08T02:17:20;102386.19;;;10.33;81.08
66524;BME280;53350;52.210;5.160;2023-04-08T02:19:55;102382.88;;;10.40;81.29
66524;BME280;53350;52.210;5.160;2023-04-08T02:22:29;102377.78;;;10.47;81.05
66524;BME280;53350;52.210;5.160;2023-04-08T02:24:58;102378.72;;;10.50;80.85
66524;BME280;53350;52.210;5.160;2023-04-08T02:27:26;102380.50;;;10.56;80.93
66524;BME280;53350;52.210;5.160;2023-04-08T02:29:55;102369.31;;;10.57;81.34
66524;BME280;53350;52.210;5.160;2023-04-08T02:32:24;102382.31;;;10.65;81.00
66524;BME280;53350;52.210;5.160;2023-04-08T02:34:52;102389.22;;;10.69;80.61
66524;BME280;53350;52.210;5.160;2023-04-08T02:37:19;102388.38;;;10.68;79.92
66524;BME280;53350;52.210;5.160;2023-04-08T02:39:46;102391.81;;;10.69;80.26
66524;BME280;53350;52.210;5.160;2023-04-08T02:42:12;102385.81;;;10.70;80.18
66524;BME280;53350;52.210;5.160;2023-04-08T02:44:38;102397.88;;;10.72;80.24
66524;BME280;53350;52.210;5.160;2023-04-08T02:47:05;102391.91;;;10.75;80.26
66524;BME280;53350;52.210;5.160;2023-04-08T02:49:31;102397.06;;;10.76;80.06
66524;BME280;53350;52.210;5.160;2023-04-08T02:51:59;102397.91;;;10.75;80.03
66524;BME280;53350;52.210;5.160;2023-04-08T02:54:25;102400.47;;;10.74;80.15
66524;BME280;53350;52.210;5.160;2023-04-08T02:56:52;102403.03;;;10.72;80.48
66524;BME280;53350;52.210;5.160;2023-04-08T02:59:18;102404.66;;;10.67;80.76
66524;BME280;53350;52.210;5.160;2023-04-08T03:01:45;102401.16;;;10.60;80.50
66524;BME280;53350;52.210;5.160;2023-04-08T03:04:11;102405.41;;;10.58;80.50
66524;BME280;53350;52.210;5.160;2023-04-08T03:06:38;102404.59;;;10.59;80.59
66524;BME280;53350;52.210;5.160;2023-04-08T03:09:05;102399.47;;;10.63;80.50
66524;BME280;53350;52.210;5.160;2023-04-08T03:11:32;102405.41;;;10.58;80.57
66524;BME280;53350;52.210;5.160;2023-04-08T03:13:59;102409.75;;;10.59;80.14
66524;BME280;53350;52.210;5.160;2023-04-08T03:16:26;102407.97;;;10.55;79.96
66524;BME280;53350;52.210;5.160;2023-04-08T03:18:52;102401.03;;;10.53;79.86
66524;BME280;53350;52.210;5.160;2023-04-08T03:21:18;102413.06;;;10.52;80.08
66524;BME280;53350;52.210;5.160;2023-04-08T03:23:45;102408.75;;;10.50;80.04
66524;BME280;53350;52.210;5.160;2023-04-08T03:26:13;102409.59;;;10.47;79.93
66524;BME280;53350;52.210;5.160;2023-04-08T03:28:39;102409.50;;;10.42;79.87
66524;BME280;53350;52.210;5.160;2023-04-08T03:31:06;102416.34;;;10.40;80.14
66524;BME280;53350;52.210;5.160;2023-04-08T03:33:32;102420.59;;;10.38;80.01
66524;BME280;53350;52.210;5.160;2023-04-08T03:35:58;102413.69;;;10.34;79.92
66524;BME280;53350;52.210;5.160;2023-04-08T03:38:25;102414.50;;;10.33;79.84
66524;BME280;53350;52.210;5.160;2023-04-08T03:40:51;102415.34;;;10.32;80.00
66524;BME280;53350;52.210;5.160;2023-04-08T03:43:19;102417.91;;;10.31;79.73
66524;BME280;53350;52.210;5.160;2023-04-08T03:45:46;102423.00;;;10.26;79.69
66524;BME280;53350;52.210;5.160;2023-04-08T03:48:12;102427.16;;;10.19;79.77
66524;BME280;53350;52.210;5.160;2023-04-08T03:50:39;102425.44;;;10.17;79.72
66524;BME280;53350;52.210;5.160;2023-04-08T03:53:05;102425.38;;;10.15;79.73
66524;BME280;53350;52.210;5.160;2023-04-08T03:55:35;102432.22;;;10.13;79.59
66524;BME280;53350;52.210;5.160;2023-04-08T03:58:01;102434.81;;;10.13;79.75
66524;BME280;53350;52.210;5.160;2023-04-08T04:00:29;102429.63;;;10.10;79.54
66524;BME280;53350;52.210;5.160;2023-04-08T04:02:56;102433.91;;;10.09;79.76
66524;BME280;53350;52.210;5.160;2023-04-08T04:05:22;102435.59;;;10.07;79.63
66524;BME280;53350;52.210;5.160;2023-04-08T04:07:48;102441.50;;;10.03;79.59
66524;BME280;53350;52.210;5.160;2023-04-08T04:10:15;102432.91;;;10.00;80.08
66524;BME280;53350;52.210;5.160;2023-04-08T04:12:41;102431.97;;;9.96;79.83
66524;BME280;53350;52.210;5.160;2023-04-08T04:15:09;102441.44;;;9.97;80.21
66524;BME280;53350;52.210;5.160;2023-04-08T04:17:37;102444.03;;;10.00;79.99
66524;BME280;53350;52.210;5.160;2023-04-08T04:20:04;102451.75;;;9.99;79.74
66524;BME280;53350;52.210;5.160;2023-04-08T04:22:31;102448.25;;;9.94;78.53
66524;BME280;53350;52.210;5.160;2023-04-08T04:24:57;102450.63;;;9.83;78.17
66524;BME280;53350;52.210;5.160;2023-04-08T04:27:24;102453.94;;;9.75;77.25
66524;BME280;53350;52.210;5.160;2023-04-08T04:29:50;102456.38;;;9.68;76.55
66524;BME280;53350;52.210;5.160;2023-04-08T04:32:17;102467.38;;;9.57;75.65
66524;BME280;53350;52.210;5.160;2023-04-08T04:34:45;102470.63;;;9.49;74.88
66524;BME280;53350;52.210;5.160;2023-04-08T04:37:11;102471.31;;;9.40;73.89
66524;BME280;53350;52.210;5.160;2023-04-08T04:39:38;102472.81;;;9.29;73.49
66524;BME280;53350;52.210;5.160;2023-04-08T04:42:05;102474.22;;;9.13;73.11
66524;BME280;53350;52.210;5.160;2023-04-08T04:44:31;102473.97;;;9.00;72.29
66524;BME280;53350;52.210;5.160;2023-04-08T04:46:58;102476.41;;;8.94;72.72
66524;BME280;53350;52.210;5.160;2023-04-08T04:49:25;102472.81;;;8.86;73.09
66524;BME280;53350;52.210;5.160;2023-04-08T04:51:52;102487.25;;;8.79;72.76
66524;BME280;53350;52.210;5.160;2023-04-08T04:54:19;102488.91;;;8.79;73.32
66524;BME280;53350;52.210;5.160;2023-04-08T04:56:45;102484.53;;;8.75;73.09
66524;BME280;53350;52.210;5.160;2023-04-08T04:59:12;102484.47;;;8.72;73.09
66524;BME280;53350;52.210;5.160;2023-04-08T05:01:38;102487.94;;;8.72;72.90
66524;BME280;53350;52.210;5.160;2023-04-08T05:04:05;102491.31;;;8.69;72.78
66524;BME280;53350;52.210;5.160;2023-04-08T05:06:31;102484.31;;;8.64;72.86
66524;BME280;53350;52.210;5.160;2023-04-08T05:08:59;102488.59;;;8.63;72.88
66524;BME280;53350;52.210;5.160;2023-04-08T05:11:26;102486.88;;;8.62;72.72
66524;BME280;53350;52.210;5.160;2023-04-08T05:13:52;102493.72;;;8.62;73.17
66524;BME280;53350;52.210;5.160;2023-04-08T05:16:18;102497.06;;;8.59;72.91
66524;BME280;53350;52.210;5.160;2023-04-08T05:18:45;102502.75;;;8.46;73.22
66524;BME280;53350;52.210;5.160;2023-04-08T05:21:11;102510.19;;;8.36;73.41
66524;BME280;53350;52.210;5.160;2023-04-08T05:23:38;102505.78;;;8.31;73.83
66524;BME280;53350;52.210;5.160;2023-04-08T05:26:07;102508.31;;;8.29;73.84
66524;BME280;53350;52.210;5.160;2023-04-08T05:28:33;102503.09;;;8.26;73.70
66524;BME280;53350;52.210;5.160;2023-04-08T05:31:00;102509.88;;;8.23;74.06
66524;BME280;53350;52.210;5.160;2023-04-08T05:33:26;102514.06;;;8.19;73.68
66524;BME280;53350;52.210;5.160;2023-04-08T05:35:53;102511.47;;;8.17;74.13
66524;BME280;53350;52.210;5.160;2023-04-08T05:38:19;102515.78;;;8.18;73.80
66524;BME280;53350;52.210;5.160;2023-04-08T05:40:46;102519.13;;;8.16;73.95
66524;BME280;53350;52.210;5.160;2023-04-08T05:43:13;102520.84;;;8.15;73.97
66524;BME280;53350;52.210;5.160;2023-04-08T05:45:40;102527.59;;;8.13;73.51
66524;BME280;53350;52.210;5.160;2023-04-08T05:48:06;102531.84;;;8.11;73.37
66524;BME280;53350;52.210;5.160;2023-04-08T05:50:34;102529.03;;;8.02;72.83
66524;BME280;53350;52.210;5.160;2023-04-08T05:53:00;102533.22;;;7.98;72.86
66524;BME280;53350;52.210;5.160;2023-04-08T05:55:27;102535.72;;;7.95;73.23
66524;BME280;53350;52.210;5.160;2023-04-08T05:57:53;102542.53;;;7.95;73.08
66524;BME280;53350;52.210;5.160;2023-04-08T06:00:21;102541.78;;;7.99;72.97
66524;BME280;53350;52.210;5.160;2023-04-08T06:02:47;102541.06;;;8.05;72.78
66524;BME280;53350;52.210;5.160;2023-04-08T06:05:14;102547.91;;;8.04;72.17
66524;BME280;53350;52.210;5.160;2023-04-08T06:07:40;102533.41;;;8.06;72.10
66524;BME280;53350;52.210;5.160;2023-04-08T06:10:07;102544.69;;;8.11;71.72
66524;BME280;53350;52.210;5.160;2023-04-08T06:12:34;102547.41;;;8.17;71.05
66524;BME280;53350;52.210;5.160;2023-04-08T06:15:01;102548.38;;;8.23;71.06
66524;BME280;53350;52.210;5.160;2023-04-08T06:17:29;102552.78;;;8.28;71.44
66524;BME280;53350;52.210;5.160;2023-04-08T06:19:56;102549.34;;;8.28;71.29
66524;BME280;53350;52.210;5.160;2023-04-08T06:22:22;102557.03;;;8.26;70.97
66524;BME280;53350;52.210;5.160;2023-04-08T06:24:49;102555.31;;;8.27;70.96
66524;BME280;53350;52.210;5.160;2023-04-08T06:27:15;102558.81;;;8.29;70.80
66524;BME280;53350;52.210;5.160;2023-04-08T06:29:42;102564.09;;;8.35;70.33
66524;BME280;53350;52.210;5.160;2023-04-08T06:32:08;102566.06;;;8.45;68.92
66524;BME280;53350;52.210;5.160;2023-04-08T06:34:36;102570.59;;;8.56;67.53
66524;BME280;53350;52.210;5.160;2023-04-08T06:37:03;102577.53;;;8.58;67.31
66524;BME280;53350;52.210;5.160;2023-04-08T06:39:30;102575.63;;;8.51;67.35
66524;BME280;53350;52.210;5.160;2023-04-08T06:41:56;102588.47;;;8.51;67.33
66524;BME280;53350;52.210;5.160;2023-04-08T06:44:23;102584.16;;;8.50;67.08
66524;BME280;53350;52.210;5.160;2023-04-08T06:46:50;102585.94;;;8.52;67.32
66524;BME280;53350;52.210;5.160;2023-04-08T06:49:16;102589.59;;;8.62;67.00
66524;BME280;53350;52.210;5.160;2023-04-08T06:51:44;102595.97;;;8.78;67.02
66524;BME280;53350;52.210;5.160;2023-04-08T06:54:10;102590.22;;;8.88;66.38
66524;BME280;53350;52.210;5.160;2023-04-08T06:56:37;102593.88;;;8.98;65.84
66524;BME280;53350;52.210;5.160;2023-04-08T06:59:03;102595.88;;;9.12;66.21
66524;BME280;53350;52.210;5.160;2023-04-08T07:01:30;102599.53;;;9.21;65.67
66524;BME280;53350;52.210;5.160;2023-04-08T07:03:56;102599.63;;;9.26;65.16
66524;BME280;53350;52.210;5.160;2023-04-08T07:06:23;102607.47;;;9.32;64.79
66524;BME280;53350;52.210;5.160;2023-04-08T07:08:51;102609.28;;;9.38;64.58
66524;BME280;53350;52.210;5.160;2023-04-08T07:11:17;102615.44;;;9.45;63.90
66524;BME280;53350;52.210;5.160;2023-04-08T07:13:43;102612.13;;;9.50;62.75
66524;BME280;53350;52.210;5.160;2023-04-08T07:16:10;102614.81;;;9.56;64.54
66524;BME280;53350;52.210;5.160;2023-04-08T07:18:36;102614.06;;;9.61;62.85
66524;BME280;53350;52.210;5.160;2023-04-08T07:21:03;102617.59;;;9.67;63.86
66524;BME280;53350;52.210;5.160;2023-04-08T07:23:29;102616.13;;;9.79;63.37
66524;BME280;53350;52.210;5.160;2023-04-08T07:26:02;102618.16;;;9.94;62.71
66524;BME280;53350;52.210;5.160;2023-04-08T07:28:29;102615.88;;;10.12;61.53
66524;BME280;53350;52.210;5.160;2023-04-08T07:30:55;102624.69;;;10.25;61.89
66524;BME280;53350;52.210;5.160;2023-04-08T07:33:22;102622.38;;;10.36;62.01
66524;BME280;53350;52.210;5.160;2023-04-08T07:35:48;102625.91;;;10.42;61.07
66524;BME280;53350;52.210;5.160;2023-04-08T07:38:15;102633.75;;;10.49;60.97
66524;BME280;53350;52.210;5.160;2023-04-08T07:40:41;102629.59;;;10.58;61.11
66524;BME280;53350;52.210;5.160;2023-04-08T07:43:09;102624.53;;;10.63;61.20
66524;BME280;53350;52.210;5.160;2023-04-08T07:45:36;102634.91;;;10.66;60.93
66524;BME280;53350;52.210;5.160;2023-04-08T07:48:02;102631.63;;;10.76;61.00
66524;BME280;53350;52.210;5.160;2023-04-08T07:50:29;102630.16;;;10.94;61.30
66524;BME280;53350;52.210;5.160;2023-04-08T07:52:55;102641.53;;;11.05;60.83
66524;BME280;53350;52.210;5.160;2023-04-08T07:55:22;102635.69;;;11.19;59.98
66524;BME280;53350;52.210;5.160;2023-04-08T07:57:48;102640.94;;;11.26;59.80
66524;BME280;53350;52.210;5.160;2023-04-08T08:00:16;102645.19;;;11.23;59.03
66524;BME280;53350;52.210;5.160;2023-04-08T08:02:45;102640.03;;;11.23;58.45
66524;BME280;53350;52.210;5.160;2023-04-08T08:05:12;102634.00;;;11.22;59.45
66524;BME280;53350;52.210;5.160;2023-04-08T08:07:39;102637.56;;;11.32;58.58
66524;BME280;53350;52.210;5.160;2023-04-08T08:10:06;102636.84;;;11.42;58.76
66524;BME280;53350;52.210;5.160;2023-04-08T08:12:33;102640.44;;;11.54;58.29
66524;BME280;53350;52.210;5.160;2023-04-08T08:14:59;102632.84;;;11.64;58.34
66524;BME280;53350;52.210;5.160;2023-04-08T08:17:27;102642.41;;;11.73;58.53
66524;BME280;53350;52.210;5.160;2023-04-08T08:19:54;102638.16;;;11.78;58.02
66524;BME280;53350;52.210;5.160;2023-04-08T08:22:21;102636.47;;;11.79;58.15
66524;BME280;53350;52.210;5.160;2023-04-08T08:24:47;102639.09;;;11.83;58.04
66524;BME280;53350;52.210;5.160;2023-04-08T08:27:13;102637.34;;;11.82;57.78
66524;BME280;53350;52.210;5.160;2023-04-08T08:29:40;102646.88;;;11.88;57.77
66524;BME280;53350;52.210;5.160;2023-04-08T08:32:06;102653.91;;;11.97;57.26
66524;BME280;53350;52.210;5.160;2023-04-08T08:34:34;102649.69;;;12.04;57.41
66524;BME280;53350;52.210;5.160;2023-04-08T08:37:00;102650.72;;;12.21;57.08
66524;BME280;53350;52.210;5.160;2023-04-08T08:39:27;102650.81;;;12.30;57.96
66524;BME280;53350;52.210;5.160;2023-04-08T08:41:53;102648.34;;;12.41;56.18
66524;BME280;53350;52.210;5.160;2023-04-08T08:44:21;102652.63;;;12.41;56.43
66524;BME280;53350;52.210;5.160;2023-04-08T08:46:47;102656.09;;;12.41;56.42
66524;BME280;53350;52.210;5.160;2023-04-08T08:49:14;102655.25;;;12.47;56.70
66524;BME280;53350;52.210;5.160;2023-04-08T08:51:44;102647.63;;;12.59;56.76
66524;BME280;53350;52.210;5.160;2023-04-08T08:54:11;102657.25;;;12.79;56.67
66524;BME280;53350;52.210;5.160;2023-04-08T08:56:38;102649.63;;;13.00;55.70
66524;BME280;53350;52.210;5.160;2023-04-08T08:59:04;102657.47;;;13.08;55.66
66524;BME280;53350;52.210;5.160;2023-04-08T09:01:35;102657.50;;;13.14;55.37
66524;BME280;53350;52.210;5.160;2023-04-08T09:04:10;102655.81;;;13.21;56.10
66524;BME280;53350;52.210;5.160;2023-04-08T09:06:37;102664.47;;;13.26;54.85
66524;BME280;53350;52.210;5.160;2023-04-08T09:09:05;102662.69;;;13.20;54.65
66524;BME280;53350;52.210;5.160;2023-04-08T09:11:35;102672.25;;;13.29;54.58
66524;BME280;53350;52.210;5.160;2023-04-08T09:14:01;102673.13;;;13.31;54.07
66524;BME280;53350;52.210;5.160;2023-04-08T09:16:29;102671.38;;;13.29;54.10
66524;BME280;53350;52.210;5.160;2023-04-08T09:19:07;102671.38;;;13.29;54.29
66524;BME280;53350;52.210;5.160;2023-04-08T09:21:34;102663.63;;;13.30;54.79
66524;BME280;53350;52.210;5.160;2023-04-08T09:24:00;102668.81;;;13.32;54.24
66524;BME280;53350;52.210;5.160;2023-04-08T09:26:28;102666.38;;;13.56;55.17
66524;BME280;53350;52.210;5.160;2023-04-08T09:28:59;102663.06;;;13.91;56.13
66524;BME280;53350;52.210;5.160;2023-04-08T09:31:27;102664.84;;;14.06;52.37
66524;BME280;53350;52.210;5.160;2023-04-08T09:33:55;102673.53;;;14.24;53.83
66524;BME280;53350;52.210;5.160;2023-04-08T09:36:22;102668.34;;;14.25;53.14
66524;BME280;53350;52.210;5.160;2023-04-08T09:38:48;102672.63;;;14.25;53.10
66524;BME280;53350;52.210;5.160;2023-04-08T09:41:16;102674.38;;;14.31;52.09
66524;BME280;53350;52.210;5.160;2023-04-08T09:43:46;102670.09;;;14.37;52.06
66524;BME280;53350;52.210;5.160;2023-04-08T09:46:15;102683.03;;;14.45;52.18
66524;BME280;53350;52.210;5.160;2023-04-08T09:48:48;102677.84;;;14.47;51.63
66524;BME280;53350;52.210;5.160;2023-04-08T09:51:18;102676.16;;;14.47;51.31
66524;BME280;53350;52.210;5.160;2023-04-08T09:53:46;102677.00;;;14.49;51.83
66524;BME280;53350;52.210;5.160;2023-04-08T09:56:15;102674.41;;;14.51;50.60
66524;BME280;53350;52.210;5.160;2023-04-08T09:58:50;102679.59;;;14.48;50.46
66524;BME280;53350;52.210;5.160;2023-04-08T10:01:23;102673.56;;;14.47;50.85
66524;BME280;53350;52.210;5.160;2023-04-08T10:03:53;102681.34;;;14.63;50.99
66524;BME280;53350;52.210;5.160;2023-04-08T10:06:21;102671.88;;;14.65;51.01
66524;BME280;53350;52.210;5.160;2023-04-08T10:08:53;102682.25;;;14.62;50.20
66524;BME280;53350;52.210;5.160;2023-04-08T10:11:20;102675.28;;;14.54;50.04
66524;BME280;53350;52.210;5.160;2023-04-08T10:13:49;102671.81;;;14.52;50.08
66524;BME280;53350;52.210;5.160;2023-04-08T10:16:16;102673.56;;;14.47;50.45
66524;BME280;53350;52.210;5.160;2023-04-08T10:18:43;102671.81;;;14.51;49.88
66524;BME280;53350;52.210;5.160;2023-04-08T10:21:34;102667.47;;;14.47;48.05
66524;BME280;53350;52.210;5.160;2023-04-08T10:24:01;102671.81;;;14.49;47.19
66524;BME280;53350;52.210;5.160;2023-04-08T10:26:36;102673.56;;;14.50;46.41
66524;BME280;53350;52.210;5.160;2023-04-08T10:29:32;102674.41;;;14.46;47.49
66524;BME280;53350;52.210;5.160;2023-04-08T10:31:59;102668.38;;;14.49;46.66
66524;BME280;53350;52.210;5.160;2023-04-08T10:34:27;102664.88;;;14.48;47.67
66524;BME280;53350;52.210;5.160;2023-04-08T10:36:55;102660.59;;;14.52;46.60
66524;BME280;53350;52.210;5.160;2023-04-08T10:39:24;102663.19;;;14.53;46.36
66524;BME280;53350;52.210;5.160;2023-04-08T10:41:50;102660.59;;;14.56;46.49
66524;BME280;53350;52.210;5.160;2023-04-08T10:44:17;102658.00;;;14.58;46.66
66524;BME280;53350;52.210;5.160;2023-04-08T10:46:46;102653.66;;;14.57;45.75
66524;BME280;53350;52.210;5.160;2023-04-08T10:49:13;102651.09;;;14.58;45.98
66524;BME280;53350;52.210;5.160;2023-04-08T10:51:40;102652.81;;;14.56;46.32
66524;BME280;53350;52.210;5.160;2023-04-08T10:54:09;102645.88;;;14.55;46.96
66524;BME280;53350;52.210;5.160;2023-04-08T10:56:43;102639.84;;;14.58;47.46
66524;BME280;53350;52.210;5.160;2023-04-08T10:59:09;102652.84;;;14.69;46.82
66524;BME280;53350;52.210;5.160;2023-04-08T11:01:37;102645.91;;;14.77;46.25
66524;BME280;53350;52.210;5.160;2023-04-08T11:04:10;102653.69;;;14.78;46.90
66524;BME280;53350;52.210;5.160;2023-04-08T11:06:37;102634.66;;;14.87;46.41
66524;BME280;53350;52.210;5.160;2023-04-08T11:09:03;102642.44;;;14.93;47.04
66524;BME280;53350;52.210;5.160;2023-04-08T11:11:30;102645.88;;;15.00;46.77
66524;BME280;53350;52.210;5.160;2023-04-08T11:13:57;102636.38;;;14.93;46.16
66524;BME280;53350;52.210;5.160;2023-04-08T11:16:25;102641.56;;;15.02;46.00
66524;BME280;53350;52.210;5.160;2023-04-08T11:18:52;102638.97;;;15.02;46.13
66524;BME280;53350;52.210;5.160;2023-04-08T11:21:22;102639.81;;;15.12;45.72
66524;BME280;53350;52.210;5.160;2023-04-08T11:23:50;102643.25;;;15.16;45.84
66524;BME280;53350;52.210;5.160;2023-04-08T11:26:17;102640.63;;;15.23;45.54
66524;BME280;53350;52.210;5.160;2023-04-08T11:28:43;102638.91;;;15.27;45.78
66524;BME280;53350;52.210;5.160;2023-04-08T11:31:11;102633.72;;;15.27;45.12
66524;BME280;53350;52.210;5.160;2023-04-08T11:33:43;102638.91;;;15.27;45.75
66524;BME280;53350;52.210;5.160;2023-04-08T11:36:11;102641.47;;;15.32;45.58
66524;BME280;53350;52.210;5.160;2023-04-08T11:38:39;102641.47;;;15.35;46.55
66524;BME280;53350;52.210;5.160;2023-04-08T11:41:06;102638.94;;;15.21;47.54
66524;BME280;53350;52.210;5.160;2023-04-08T11:43:33;102631.16;;;15.21;47.44
66524;BME280;53350;52.210;5.160;2023-04-08T11:46:07;102640.66;;;15.17;47.28
66524;BME280;53350;52.210;5.160;2023-04-08T11:48:34;102641.53;;;15.13;46.48
66524;BME280;53350;52.210;5.160;2023-04-08T11:51:04;102642.41;;;15.10;46.98
66524;BME280;53350;52.210;5.160;2023-04-08T11:53:33;102650.22;;;15.12;45.83
66524;BME280;53350;52.210;5.160;2023-04-08T11:56:17;102638.09;;;15.08;46.08
66524;BME280;53350;52.210;5.160;2023-04-08T11:58:43;102634.63;;;15.12;46.51
66524;BME280;53350;52.210;5.160;2023-04-08T12:01:10;102631.13;;;15.18;46.88
66524;BME280;53350;52.210;5.160;2023-04-08T12:03:36;102640.63;;;15.34;46.56
66524;BME280;53350;52.210;5.160;2023-04-08T12:06:03;102639.72;;;15.40;46.00
66524;BME280;53350;52.210;5.160;2023-04-08T12:08:29;102637.13;;;15.44;45.59
66524;BME280;53350;52.210;5.160;2023-04-08T12:10:56;102641.44;;;15.39;45.66
66524;BME280;53350;52.210;5.160;2023-04-08T12:13:24;102643.22;;;15.34;45.24
66524;BME280;53350;52.210;5.160;2023-04-08T12:15:51;102641.47;;;15.32;44.76
66524;BME280;53350;52.210;5.160;2023-04-08T12:18:18;102652.72;;;15.29;44.76
66524;BME280;53350;52.210;5.160;2023-04-08T12:20:45;102642.34;;;15.37;43.85
66524;BME280;53350;52.210;5.160;2023-04-08T12:23:11;102649.25;;;15.35;43.96
66524;BME280;53350;52.210;5.160;2023-04-08T12:25:38;102639.75;;;15.29;45.12
66524;BME280;53350;52.210;5.160;2023-04-08T12:28:05;102650.13;;;15.38;44.97
66524;BME280;53350;52.210;5.160;2023-04-08T12:30:35;102633.69;;;15.32;46.16
66524;BME280;53350;52.210;5.160;2023-04-08T12:33:01;102648.44;;;15.22;46.22
66524;BME280;53350;52.210;5.160;2023-04-08T12:35:28;102626.75;;;15.34;46.01
66524;BME280;53350;52.210;5.160;2023-04-08T12:37:55;102636.25;;;15.38;45.44
66524;BME280;53350;52.210;5.160;2023-04-08T12:40:21;102632.78;;;15.40;46.12
66524;BME280;53350;52.210;5.160;2023-04-08T12:42:48;102631.91;;;15.49;45.95
66524;BME280;53350;52.210;5.160;2023-04-08T12:45:15;102624.97;;;15.50;44.62
66524;BME280;53350;52.210;5.160;2023-04-08T12:47:43;102622.31;;;15.65;44.32
66524;BME280;53350;52.210;5.160;2023-04-08T12:50:09;102634.47;;;15.61;44.00
66524;BME280;53350;52.210;5.160;2023-04-08T12:52:36;102631.88;;;15.60;42.67
66524;BME280;53350;52.210;5.160;2023-04-08T12:55:02;102626.63;;;15.68;41.64